Time;durP1;ratioP1;P1;durP2;ratioP2;P2;SDS_P1;SDS_P2;PMS_P1;PMS_P2;Temp;Humidity;BMP_temperature;BMP_pressure;BME280_temperature;BME280_humidity;BME280_pressure;Samples;Min_cycle;Max_cycle;Signal;HPM_P1;HPM_P2
2022/08/30 00:03:19;;;;;;;11.80;10.90;;;;;;;25.77;47.78;95237.22;6178011;28;103088;-63
2022/08/30 00:06:23;;;;;;;12.73;11.53;;;;;;;25.81;47.40;95232.75;6196300;28;103202;-63
2022/08/30 00:09:26;;;;;;;11.63;10.73;;;;;;;25.84;47.20;95237.47;6192553;28;103414;-62
2022/08/30 00:12:31;;;;;;;10.83;10.03;;;;;;;25.80;47.52;95239.22;6212173;28;105892;-62
2022/08/30 00:15:35;;;;;;;10.27;9.47;;;;;;;25.80;47.35;95233.09;6199189;28;103069;-63
2022/08/30 00:18:38;;;;;;;10.03;9.33;;;;;;;25.81;46.86;95223.94;6191984;28;103011;-63
2022/08/30 00:21:41;;;;;;;10.70;9.77;;;;;;;25.77;47.47;95223.03;6194830;28;103318;-63
2022/08/30 00:24:44;;;;;;;10.93;9.90;;;;;;;25.78;47.42;95229.94;6182548;28;102987;-62
2022/08/30 00:27:49;;;;;;;10.67;9.83;;;;;;;25.75;47.42;95225.25;6162197;28;104108;-63
2022/08/30 00:30:52;;;;;;;9.77;9.07;;;;;;;25.74;46.96;95234.41;6176592;28;104141;-64
2022/08/30 00:33:55;;;;;;;9.93;9.13;;;;;;;25.74;47.08;95237.88;6204730;28;103013;-62
2022/08/30 00:36:59;;;;;;;11.00;10.20;;;;;;;25.73;47.76;95228.25;6200502;28;103470;-62
2022/08/30 00:40:04;;;;;;;12.30;11.03;;;;;;;25.71;47.64;95235.03;6194761;28;103056;-62
2022/08/30 00:43:13;;;;;;;12.27;11.23;;;;;;;25.70;47.78;95242.28;6195575;28;103115;-62
2022/08/30 00:46:17;;;;;;;13.17;12.20;;;;;;;25.69;48.04;95249.53;6197748;28;102800;-61
2022/08/30 00:49:20;;;;;;;13.03;11.83;;;;;;;25.66;48.27;95244.81;6199845;28;103050;-65
2022/08/30 00:52:24;;;;;;;13.20;12.10;;;;;;;25.65;48.15;95243.25;6189334;28;103238;-62
2022/08/30 00:55:29;;;;;;;13.97;12.80;;;;;;;25.66;48.27;95241.38;6187427;28;103384;-62
2022/08/30 00:58:36;;;;;;;12.43;11.40;;;;;;;25.64;48.58;95238.22;6182049;28;104250;-62
2022/08/30 01:01:41;;;;;;;13.83;12.80;;;;;;;25.62;48.51;95243.91;6194216;28;102820;-62
2022/08/30 01:04:45;;;;;;;14.30;13.20;;;;;;;25.63;48.63;95242.00;6192544;28;102839;-62
2022/08/30 01:07:48;;;;;;;14.13;12.90;;;;;;;25.61;48.75;95231.63;6198257;28;103133;-62
2022/08/30 01:10:53;;;;;;;16.03;14.60;;;;;;;25.62;48.74;95235.09;6196458;28;103537;-65
2022/08/30 01:13:58;;;;;;;19.30;17.70;;;;;;;25.63;49.10;95231.28;6196345;28;103144;-62
2022/08/30 01:17:09;;;;;;;17.50;16.03;;;;;;;25.57;48.82;95235.28;6201165;28;103374;-65
2022/08/30 01:20:16;;;;;;;17.97;16.37;;;;;;;25.57;48.48;95230.69;6186507;28;103286;-67
2022/08/30 01:23:24;;;;;;;15.73;14.43;;;;;;;25.57;49.03;95235.28;6183095;28;103252;-68
2022/08/30 01:26:30;;;;;;;15.20;14.00;;;;;;;25.56;49.36;95229.13;6186159;28;103094;-68
2022/08/30 01:29:34;;;;;;;14.83;13.67;;;;;;;25.56;49.29;95223.78;6195351;28;103099;-68
2022/08/30 01:32:40;;;;;;;13.97;12.80;;;;;;;25.61;48.82;95226.25;6189010;28;102898;-68
2022/08/30 01:35:48;;;;;;;14.70;13.47;;;;;;;25.58;48.96;95221.56;6183677;28;103264;-67
2022/08/30 01:38:54;;;;;;;15.97;14.77;;;;;;;25.61;48.98;95222.78;6198436;28;104279;-68
2022/08/30 01:41:58;;;;;;;17.03;15.40;;;;;;;25.59;49.06;95230.38;6186345;28;103231;-68
2022/08/30 01:45:01;;;;;;;16.07;14.77;;;;;;;25.59;49.02;95228.47;6200471;28;103071;-63
2022/08/30 01:48:04;;;;;;;15.20;14.00;;;;;;;25.61;48.90;95218.22;6212717;28;103298;-62
2022/08/30 01:51:11;;;;;;;14.63;13.30;;;;;;;25.59;48.62;95223.13;6210173;28;103978;-63
2022/08/30 01:54:15;;;;;;;14.33;13.23;;;;;;;25.60;48.83;95219.31;6196511;28;102813;-63
2022/08/30 01:57:21;;;;;;;12.33;11.43;;;;;;;25.61;48.51;95220.91;6181579;28;105332;-62
2022/08/30 02:00:25;;;;;;;11.63;10.70;;;;;;;25.60;48.50;95222.00;6190477;28;106469;-62
2022/08/30 02:03:33;;;;;;;12.70;11.50;;;;;;;25.65;48.24;95218.34;6198692;28;102945;-62
2022/08/30 02:06:38;;;;;;;13.97;12.63;;;;;;;25.64;48.29;95219.47;6203068;28;104187;-61
2022/08/30 02:09:43;;;;;;;12.90;11.90;;;;;;;25.64;48.25;95214.88;6192884;28;104098;-64
2022/08/30 02:12:48;;;;;;;12.27;11.13;;;;;;;25.59;48.03;95215.09;6210971;28;103943;-63
2022/08/30 02:15:53;;;;;;;10.87;9.77;;;;;;;25.62;47.66;95217.09;6194983;28;103232;-62
2022/08/30 02:18:56;;;;;;;10.10;9.40;;;;;;;25.55;47.76;95216.84;6204586;28;103440;-63
2022/08/30 02:21:59;;;;;;;12.47;11.40;;;;;;;25.53;47.58;95215.56;6190354;28;103205;-63
2022/08/30 02:25:05;;;;;;;11.60;10.80;;;;;;;25.52;47.78;95206.75;6190165;28;103313;-63
2022/08/30 02:28:14;;;;;;;10.20;9.50;;;;;;;25.50;47.37;95202.81;6194679;28;103315;-62
2022/08/30 02:31:22;;;;;;;9.03;8.43;;;;;;;25.46;47.37;95207.25;6193711;28;103122;-62
2022/08/30 02:34:25;;;;;;;9.97;9.17;;;;;;;25.49;47.04;95202.03;6201401;28;103201;-63
2022/08/30 02:37:28;;;;;;;8.83;8.00;;;;;;;25.48;47.61;95205.81;6197775;28;104169;-64
2022/08/30 02:40:33;;;;;;;10.00;9.10;;;;;;;25.52;47.45;95209.41;6199343;28;102947;-63
2022/08/30 02:43:36;;;;;;;10.23;9.43;;;;;;;25.52;47.48;95200.59;6191884;28;103098;-64
2022/08/30 02:46:40;;;;;;;10.83;9.73;;;;;;;25.56;47.37;95198.88;6180344;28;104753;-63
2022/08/30 02:49:43;;;;;;;10.50;9.57;;;;;;;25.58;47.23;95202.78;6189590;28;103218;-63
2022/08/30 02:52:46;;;;;;;12.77;11.77;;;;;;;25.59;46.92;95192.84;6197397;28;104103;-62
2022/08/30 02:55:51;;;;;;;13.33;12.30;;;;;;;25.58;47.31;95183.25;6195805;28;104108;-62
2022/08/30 02:58:55;;;;;;;12.00;11.10;;;;;;;25.61;47.29;95193.31;6189988;28;105191;-63
2022/08/30 03:01:58;;;;;;;11.23;10.23;;;;;;;25.61;46.66;95202.13;6189553;28;103279;-63
2022/08/30 03:05:02;;;;;;;11.97;10.97;;;;;;;25.56;47.29;95206.91;6179813;28;104286;-63
2022/08/30 03:08:05;;;;;;;10.40;9.50;;;;;;;25.56;47.20;95202.34;6164707;28;103113;-63
2022/08/30 03:11:12;;;;;;;11.00;10.20;;;;;;;25.59;46.64;95201.69;6186506;28;103213;-62
2022/08/30 03:14:15;;;;;;;11.30;9.60;;;;;;;25.56;47.13;95205.00;6195438;28;103122;-62
2022/08/30 03:17:18;;;;;;;10.57;9.67;;;;;;;25.53;46.88;95205.63;6203031;28;103340;-64
2022/08/30 03:20:22;;;;;;;9.93;9.13;;;;;;;25.59;47.37;95207.03;6203706;28;104293;-66
2022/08/30 03:23:25;;;;;;;10.67;9.73;;;;;;;25.64;46.72;95209.53;6189942;28;103422;-66
2022/08/30 03:26:30;;;;;;;12.33;11.23;;;;;;;25.30;47.79;95215.03;6189854;28;104548;-66
2022/08/30 03:29:33;;;;;;;10.97;10.10;;;;;;;25.05;47.88;95206.00;6178806;28;102849;-65
2022/08/30 03:32:36;;;;;;;28.33;26.23;;;;;;;25.07;47.97;95215.28;6204484;28;103061;-66
2022/08/30 03:35:39;;;;;;;14.33;13.03;;;;;;;25.14;47.60;95211.31;6191628;28;103083;-65
2022/08/30 03:38:42;;;;;;;11.50;10.43;;;;;;;25.34;47.21;95206.00;6172869;28;104032;-68
2022/08/30 03:41:47;;;;;;;11.77;10.87;;;;;;;25.50;47.20;95210.84;6200051;28;103491;-65
2022/08/30 03:44:51;;;;;;;12.23;11.23;;;;;;;25.46;47.66;95213.41;6204666;28;103972;-65
2022/08/30 03:47:54;;;;;;;11.13;10.00;;;;;;;25.37;48.59;95215.31;6191937;28;103215;-67
2022/08/30 03:50:57;;;;;;;12.07;10.70;;;;;;;25.43;49.43;95214.06;6178288;28;105435;-66
2022/08/30 03:54:00;;;;;;;11.87;10.87;;;;;;;25.43;48.05;95214.06;6185061;28;103651;-68
2022/08/30 03:57:06;;;;;;;13.43;12.10;;;;;;;25.51;47.93;95223.94;6181217;28;103968;-66
2022/08/30 04:00:17;;;;;;;13.13;11.13;;;;;;;25.50;47.81;95210.84;6191926;28;102793;-66
2022/08/30 04:03:24;;;;;;;12.70;11.50;;;;;;;25.52;47.93;95211.31;6179924;28;103694;-67
2022/08/30 04:06:28;;;;;;;11.43;10.53;;;;;;;25.46;48.09;95212.63;6201789;28;103068;-66
2022/08/30 04:09:31;;;;;;;11.60;10.70;;;;;;;25.44;48.03;95214.84;6185041;28;103398;-67
2022/08/30 04:12:36;;;;;;;12.13;10.70;;;;;;;25.29;48.96;95226.84;6184218;28;103433;-67
2022/08/30 04:15:40;;;;;;;15.13;13.93;;;;;;;24.92;50.09;95223.81;6195719;28;105116;-64
2022/08/30 04:18:44;;;;;;;13.90;12.60;;;;;;;24.57;50.69;95222.31;6187698;28;103140;-65
2022/08/30 04:21:47;;;;;;;13.70;10.63;;;;;;;24.75;49.98;95227.34;6186968;28;103013;-68
2022/08/30 04:24:50;;;;;;;12.40;11.30;;;;;;;25.00;49.40;95231.03;6176616;28;103285;-67
2022/08/30 04:27:54;;;;;;;15.30;11.00;;;;;;;25.08;49.07;95234.81;6186487;28;103230;-66
2022/08/30 04:30:57;;;;;;;14.23;11.50;;;;;;;25.02;49.67;95234.19;6187950;28;103014;-66
2022/08/30 04:34:01;;;;;;;11.40;10.40;;;;;;;25.03;49.23;95230.44;6188546;28;104187;-68
2022/08/30 04:37:04;;;;;;;10.37;9.37;;;;;;;25.04;48.94;95234.66;6174592;28;106023;-66
2022/08/30 04:40:12;;;;;;;10.53;9.53;;;;;;;24.89;49.28;95224.47;6185337;28;103041;-68
2022/08/30 04:43:17;;;;;;;11.13;10.13;;;;;;;24.71;49.65;95237.09;6184782;28;103037;-67
2022/08/30 04:46:20;;;;;;;11.07;10.07;;;;;;;24.47;50.28;95242.91;6184768;28;103045;-68
2022/08/30 04:49:23;;;;;;;11.37;10.50;;;;;;;24.49;50.23;95250.63;6173527;28;105535;-66
2022/08/30 04:52:28;;;;;;;10.63;9.83;;;;;;;24.72;49.69;95248.59;6186372;28;104219;-66
2022/08/30 04:55:31;;;;;;;10.93;10.07;;;;;;;24.85;49.44;95257.53;6187707;28;103118;-66
2022/08/30 04:58:36;;;;;;;11.70;10.80;;;;;;;24.66;49.61;95257.84;6180870;28;103116;-72
2022/08/30 05:01:39;;;;;;;11.80;10.70;;;;;;;24.49;50.22;95262.09;6181518;28;103206;-66
2022/08/30 05:08:04;;;;;;;11.27;10.23;;;;;;;24.82;49.40;95264.31;6185705;28;103066;-67
2022/08/30 05:11:08;;;;;;;12.60;11.57;;;;;;;24.82;49.60;95258.97;6176018;28;103158;-66
2022/08/30 05:14:13;;;;;;;11.20;10.30;;;;;;;24.87;49.53;95266.06;6186010;28;103098;-67
2022/08/30 05:17:16;;;;;;;12.50;11.43;;;;;;;25.02;49.25;95263.63;6187399;28;103041;-67
2022/08/30 05:20:20;;;;;;;12.83;11.53;;;;;;;25.07;48.97;95262.69;6186329;28;105315;-66
2022/08/30 05:23:23;;;;;;;12.13;11.03;;;;;;;24.92;50.01;95264.00;6175602;28;103093;-67
2022/08/30 05:26:29;;;;;;;12.53;11.33;;;;;;;24.92;49.69;95264.00;6187581;28;103123;-66
2022/08/30 05:29:33;;;;;;;12.17;11.17;;;;;;;25.05;49.04;95273.72;6186341;28;104407;-67
2022/08/30 05:32:36;;;;;;;11.90;10.70;;;;;;;25.07;49.44;95276.09;6181286;28;103562;-66
2022/08/30 05:35:40;;;;;;;11.47;10.47;;;;;;;25.06;49.33;95275.31;6180792;28;103209;-67
2022/08/30 05:38:44;;;;;;;10.87;10.00;;;;;;;25.09;49.02;95271.97;6186263;28;103816;-66
2022/08/30 05:41:47;;;;;;;11.40;10.50;;;;;;;25.16;49.04;95265.34;6185829;28;102930;-66
2022/08/30 05:44:54;;;;;;;11.83;10.80;;;;;;;25.04;48.95;95260.66;6176211;28;103192;-66
2022/08/30 05:47:57;;;;;;;11.80;10.70;;;;;;;25.08;49.28;95258.91;6186062;28;103664;-66
2022/08/30 05:51:09;;;;;;;12.10;10.90;;;;;;;25.15;49.32;95264.56;6185626;28;103187;-65
2022/08/30 05:54:13;;;;;;;13.37;12.07;;;;;;;25.17;49.45;95258.88;6186798;28;105393;-66
2022/08/30 05:57:16;;;;;;;12.83;11.60;;;;;;;25.16;49.54;95268.00;6175101;28;106316;-66
2022/08/30 06:00:25;;;;;;;12.20;11.30;;;;;;;24.85;50.57;95262.88;6185707;28;102945;-67
2022/08/30 06:03:31;;;;;;;13.50;11.70;;;;;;;24.83;50.58;95265.88;6186809;28;104374;-68
2022/08/30 06:06:36;;;;;;;11.93;10.93;;;;;;;25.03;49.60;95265.22;6180581;28;103134;-66
2022/08/30 06:09:39;;;;;;;12.17;11.17;;;;;;;25.19;49.47;95268.16;6181036;28;105162;-67
2022/08/30 06:12:42;;;;;;;15.10;11.67;;;;;;;25.25;49.39;95272.25;6185457;28;103162;-66
2022/08/30 06:15:47;;;;;;;12.47;11.03;;;;;;;25.27;48.86;95275.41;6186579;28;104172;-65
2022/08/30 06:18:50;;;;;;;12.77;11.67;;;;;;;25.28;48.60;95265.47;6174502;28;103136;-67
2022/08/30 06:21:54;;;;;;;13.20;12.13;;;;;;;25.24;49.46;95284.06;6185537;28;103074;-66
2022/08/30 06:24:57;;;;;;;13.27;11.90;;;;;;;25.33;49.39;95278.66;6186358;28;103105;-67
2022/08/30 06:28:01;;;;;;;13.63;12.30;;;;;;;25.35;49.16;95287.19;6185107;28;103014;-67
2022/08/30 06:31:08;;;;;;;13.07;12.03;;;;;;;25.32;49.08;95287.81;6175515;28;103019;-66
2022/08/30 06:34:11;;;;;;;13.53;12.43;;;;;;;25.31;49.76;95294.28;6189749;28;103031;-68
2022/08/30 06:37:15;;;;;;;13.67;12.50;;;;;;;25.28;50.12;95286.91;6189748;28;103541;-66
2022/08/30 06:40:32;;;;;;;14.80;13.23;;;;;;;25.07;50.14;95289.47;6184998;28;103651;-67
2022/08/30 06:43:35;;;;;;;13.97;12.87;;;;;;;25.22;49.64;95299.69;6184353;28;102884;-66
2022/08/30 06:46:40;;;;;;;13.10;12.20;;;;;;;25.24;49.93;95296.69;6189220;28;103202;-66
2022/08/30 06:49:43;;;;;;;16.33;12.37;;;;;;;25.32;49.53;95301.22;6189308;28;102955;-66
2022/08/30 06:52:47;;;;;;;13.13;11.93;;;;;;;25.30;49.28;95292.72;6178154;28;103397;-66
2022/08/30 06:55:56;;;;;;;22.30;14.90;;;;;;;25.27;49.87;95296.03;6189036;28;103356;-67
2022/08/30 06:58:59;;;;;;;16.40;14.90;;;;;;;25.31;50.31;95296.97;6189623;28;102944;-67
2022/08/30 07:02:06;;;;;;;16.57;14.90;;;;;;;25.31;50.25;95296.97;6189276;28;103229;-68
2022/08/30 07:05:11;;;;;;;16.80;15.10;;;;;;;25.30;50.32;95301.53;6177786;28;103369;-69
2022/08/30 07:08:21;;;;;;;16.43;14.23;;;;;;;25.33;50.28;95300.09;6189879;28;102772;-67
2022/08/30 07:11:27;;;;;;;17.93;16.27;;;;;;;25.29;50.46;95304.53;6188396;28;103288;-67
2022/08/30 07:14:30;;;;;;;15.87;14.57;;;;;;;25.26;51.03;95305.19;6184347;28;103207;-66
2022/08/30 07:20:56;;;;;;;16.10;14.60;;;;;;;25.25;51.26;95304.41;6188474;28;103082;-66
2022/08/30 07:24:00;;;;;;;17.20;15.57;;;;;;;25.22;51.20;95302.38;6188997;28;103658;-67
2022/08/30 07:27:03;;;;;;;18.50;16.90;;;;;;;25.19;51.22;95300.28;6178507;28;103567;-68
2022/08/30 07:30:09;;;;;;;16.83;15.30;;;;;;;25.20;51.08;95298.41;6189093;28;104281;-67
2022/08/30 07:33:13;;;;;;;16.33;14.93;;;;;;;25.21;51.05;95297.31;6188448;28;103356;-68
2022/08/30 07:36:17;;;;;;;16.13;14.63;;;;;;;25.26;50.65;95305.19;6188699;28;102877;-67
2022/08/30 07:39:20;;;;;;;15.90;14.50;;;;;;;25.21;51.40;95302.69;6178035;28;105946;-68
2022/08/30 07:42:23;;;;;;;16.60;14.93;;;;;;;25.26;50.85;95310.53;6186597;28;103196;-67
2022/08/30 07:45:26;;;;;;;17.10;15.60;;;;;;;25.28;50.61;95311.78;6187230;28;103012;-66
2022/08/30 07:48:31;;;;;;;19.80;15.50;;;;;;;25.26;50.65;95315.91;6181046;28;103136;-68
2022/08/30 07:51:35;;;;;;;15.70;14.30;;;;;;;25.21;51.33;95316.84;6181753;28;103289;-68
2022/08/30 07:54:39;;;;;;;17.30;15.60;;;;;;;25.20;51.07;95317.16;6187322;28;103150;-68
2022/08/30 07:57:42;;;;;;;18.30;15.07;;;;;;;25.23;50.90;95320.00;6186661;28;103123;-68
2022/08/30 08:00:45;;;;;;;17.30;15.80;;;;;;;25.25;51.57;95322.34;6176281;28;102942;-67
2022/08/30 08:03:50;;;;;;;17.83;16.33;;;;;;;25.12;52.02;95320.66;6186455;28;102972;-67
2022/08/30 08:06:56;;;;;;;16.40;14.93;;;;;;;25.13;51.93;95314.19;6186572;28;102899;-66
2022/08/30 08:10:00;;;;;;;17.00;15.40;;;;;;;25.19;51.93;95320.94;6186867;28;103379;-66
2022/08/30 08:13:03;;;;;;;18.27;14.80;;;;;;;25.18;51.66;95316.69;6175619;28;103533;-67
2022/08/30 08:16:06;;;;;;;16.37;15.07;;;;;;;25.21;52.02;95324.91;6187839;28;103125;-66
2022/08/30 08:19:11;;;;;;;15.73;14.07;;;;;;;25.22;51.93;95323.78;6188065;28;103254;-66
2022/08/30 08:22:14;;;;;;;21.13;17.17;;;;;;;25.23;51.91;95327.25;6187407;28;102949;-67
2022/08/30 08:25:26;;;;;;;17.30;15.60;;;;;;;25.18;51.85;95325.50;6182214;28;105934;-67
2022/08/30 08:28:29;;;;;;;25.63;16.57;;;;;;;25.16;52.31;95326.94;6187688;28;103723;-66
2022/08/30 08:31:33;;;;;;;18.90;16.90;;;;;;;25.15;53.21;95328.03;6187338;28;103060;-66
2022/08/30 08:34:37;;;;;;;18.07;16.50;;;;;;;25.17;53.13;95328.50;6176871;28;102964;-68
2022/08/30 08:37:40;;;;;;;19.87;17.80;;;;;;;25.22;52.76;95331.81;6187436;28;103580;-68
2022/08/30 08:40:55;;;;;;;18.37;16.57;;;;;;;25.20;52.85;95338.56;6186813;28;103073;-66
2022/08/30 08:43:59;;;;;;;18.60;16.43;;;;;;;25.21;53.67;95338.28;6187343;28;102737;-66
2022/08/30 08:47:11;;;;;;;18.50;17.00;;;;;;;25.26;52.96;95326.63;6176458;28;103124;-66
2022/08/30 08:50:20;;;;;;;19.70;17.80;;;;;;;25.24;52.89;95331.50;6187503;28;102877;-66
2022/08/30 08:53:34;;;;;;;17.80;16.10;;;;;;;25.21;53.01;95334.81;6186246;28;103320;-66
2022/08/30 08:56:48;;;;;;;16.83;15.27;;;;;;;25.24;53.18;95334.97;6181144;28;103258;-67
2022/08/30 08:59:53;;;;;;;15.90;14.40;;;;;;;25.30;53.20;95325.66;6181679;28;103556;-66
2022/08/30 09:02:59;;;;;;;16.93;15.03;;;;;;;25.41;52.94;95328.81;6186456;28;103098;-66
2022/08/30 09:06:07;;;;;;;17.80;13.70;;;;;;;25.48;52.08;95328.31;6187852;28;105783;-67
2022/08/30 09:09:10;;;;;;;14.80;13.57;;;;;;;25.56;52.39;95330.19;6176789;28;103148;-67
2022/08/30 09:12:14;;;;;;;13.43;12.40;;;;;;;25.65;51.45;95326.34;6186967;28;103179;-67
2022/08/30 09:15:26;;;;;;;13.27;12.17;;;;;;;25.69;51.69;95329.16;6187141;28;103121;-67
2022/08/30 09:18:44;;;;;;;13.87;12.70;;;;;;;25.73;51.25;95323.97;6186544;28;103201;-67
2022/08/30 09:21:57;;;;;;;14.33;12.90;;;;;;;25.81;51.20;95320.44;6175994;28;102985;-66
2022/08/30 09:25:05;;;;;;;14.20;13.17;;;;;;;25.85;51.03;95319.47;6186837;28;102764;-67
2022/08/30 09:28:11;;;;;;;13.20;12.03;;;;;;;25.90;50.75;95323.88;6186426;28;103025;-66
2022/08/30 09:31:19;;;;;;;12.97;11.70;;;;;;;25.93;50.59;95318.66;6175797;28;103183;-66
2022/08/30 09:34:25;;;;;;;14.20;13.10;;;;;;;25.97;50.73;95310.75;6186587;28;103168;-66
2022/08/30 09:37:34;;;;;;;14.90;13.57;;;;;;;26.01;50.65;95306.34;6186844;28;102859;-66
2022/08/30 09:40:40;;;;;;;14.03;12.80;;;;;;;26.01;50.35;95311.69;6185548;28;102961;-66
2022/08/30 09:43:43;;;;;;;13.70;12.40;;;;;;;26.05;50.03;95309.19;6176419;28;103716;-67
2022/08/30 09:46:50;;;;;;;12.90;11.70;;;;;;;26.10;50.08;95312.44;6186302;28;103811;-67
2022/08/30 09:50:04;;;;;;;13.03;11.83;;;;;;;26.16;49.93;95310.34;6186264;28;103032;-66
2022/08/30 09:53:17;;;;;;;13.97;12.67;;;;;;;26.17;49.97;95298.50;6181643;28;103057;-67
2022/08/30 09:56:33;;;;;;;13.03;11.87;;;;;;;26.20;49.33;95304.00;6180676;28;103467;-68
2022/08/30 09:59:45;;;;;;;12.80;11.80;;;;;;;26.24;49.53;95299.59;6186147;28;103265;-66
2022/08/30 10:02:58;;;;;;;13.70;12.50;;;;;;;26.23;49.11;95289.97;6186151;28;103051;-67
2022/08/30 10:06:10;;;;;;;14.13;12.63;;;;;;;26.21;49.01;95289.50;6178683;28;104267;-66
2022/08/30 10:09:26;;;;;;;14.37;13.20;;;;;;;26.22;49.36;95288.41;6189767;28;103136;-66
2022/08/30 10:12:41;;;;;;;14.53;13.43;;;;;;;26.22;49.14;95274.19;6190686;28;103509;-67
2022/08/30 10:15:51;;;;;;;14.90;13.60;;;;;;;26.23;48.74;95283.81;6186398;28;103247;-69
2022/08/30 10:19:03;;;;;;;14.10;12.70;;;;;;;26.23;47.98;95278.44;6184133;28;103172;-68
2022/08/30 10:22:14;;;;;;;14.30;13.03;;;;;;;26.26;47.69;95275.09;6190176;28;103042;-67
2022/08/30 10:25:22;;;;;;;15.00;13.70;;;;;;;26.27;48.54;95274.78;6189388;28;102966;-67
2022/08/30 10:28:30;;;;;;;14.40;13.00;;;;;;;26.27;48.63;95274.78;6180036;28;105591;-66
2022/08/30 10:31:42;;;;;;;14.47;13.27;;;;;;;26.27;48.20;95274.00;6189874;28;103452;-66
2022/08/30 10:34:54;;;;;;;14.07;12.70;;;;;;;26.29;48.66;95279.81;6189561;28;102986;-66
2022/08/30 10:38:05;;;;;;;13.83;12.60;;;;;;;26.25;48.65;95271.63;6190161;28;103349;-67
2022/08/30 10:41:20;;;;;;;14.97;13.50;;;;;;;26.26;48.57;95267.84;6179340;28;104918;-67
2022/08/30 10:44:27;;;;;;;15.53;13.83;;;;;;;26.24;48.92;95264.69;6189261;28;103415;-68
2022/08/30 10:47:38;;;;;;;14.13;12.87;;;;;;;26.22;48.69;95266.94;6188704;28;103989;-66
2022/08/30 10:50:46;;;;;;;13.80;12.60;;;;;;;26.20;49.43;95263.75;6179452;28;103116;-68
2022/08/30 10:53:55;;;;;;;15.70;14.17;;;;;;;26.20;48.93;95268.34;6188437;28;103323;-68
2022/08/30 10:57:00;;;;;;;13.50;12.40;;;;;;;26.19;49.06;95267.56;6189821;28;103223;-67
2022/08/30 11:00:09;;;;;;;14.07;13.00;;;;;;;26.18;48.61;95260.63;6189494;28;103035;-67
2022/08/30 11:03:47;;;;;;;14.30;13.00;;;;;;;26.16;49.38;95251.34;6178839;28;103996;-66
2022/08/30 11:07:00;;;;;;;13.13;11.93;;;;;;;26.16;49.13;95254.03;6189152;28;103622;-66
2022/08/30 11:10:22;;;;;;;13.20;12.10;;;;;;;26.17;48.82;95256.38;6189038;28;103192;-67
2022/08/30 11:13:31;;;;;;;13.93;12.70;;;;;;;26.16;48.51;95244.06;6178672;28;104591;-66
2022/08/30 11:16:37;;;;;;;12.73;11.73;;;;;;;26.18;48.53;95239.16;6188565;28;102764;-67
2022/08/30 11:19:41;;;;;;;13.10;11.90;;;;;;;26.20;47.88;95238.84;6189251;28;103126;-66
2022/08/30 11:23:13;;;;;;;14.23;13.07;;;;;;;26.20;47.86;95231.56;6188297;28;103094;-66
2022/08/30 11:27:09;;;;;;;15.40;13.17;;;;;;;26.28;48.28;95228.06;6178275;28;102981;-65
2022/08/30 11:30:50;;;;;;;15.77;14.57;;;;;;;26.30;47.69;95225.03;6188618;28;104233;-67
2022/08/30 11:33:55;;;;;;;15.97;14.50;;;;;;;26.32;47.20;95224.69;6189019;28;102810;-66
2022/08/30 11:37:04;;;;;;;15.40;14.20;;;;;;;26.32;47.39;95219.34;6177231;28;103268;-66
2022/08/30 11:40:47;;;;;;;17.17;14.80;;;;;;;26.34;47.81;95219.78;6188013;28;102708;-67
2022/08/30 11:43:55;;;;;;;15.50;14.03;;;;;;;26.33;46.99;95208.28;6188730;28;103084;-66
2022/08/30 11:47:01;;;;;;;15.10;13.80;;;;;;;26.37;46.81;95216.44;6182234;28;104418;-67
2022/08/30 11:50:12;;;;;;;16.30;14.70;;;;;;;26.38;46.91;95218.81;6182245;28;102978;-67
2022/08/30 11:53:27;;;;;;;16.30;14.80;;;;;;;26.38;46.04;95212.66;6188612;28;103371;-67
2022/08/30 11:56:41;;;;;;;17.23;14.03;;;;;;;26.30;46.90;95208.16;6188705;28;105629;-66
2022/08/30 11:59:59;;;;;;;15.03;13.80;;;;;;;26.25;46.70;95207.25;6178081;28;103975;-66
2022/08/30 12:03:05;;;;;;;13.23;12.10;;;;;;;26.27;47.00;95206.91;6187901;28;103019;-66
2022/08/30 12:06:10;;;;;;;13.90;12.53;;;;;;;26.28;46.47;95192.38;6187925;28;103072;-66
2022/08/30 12:10:03;;;;;;;15.60;12.97;;;;;;;26.27;46.76;95188.13;6185756;28;102968;-67
2022/08/30 12:13:06;;;;;;;14.97;13.70;;;;;;;26.26;46.95;95190.03;6187582;28;103732;-66
2022/08/30 12:16:12;;;;;;;15.07;13.83;;;;;;;26.26;46.81;95181.97;6187530;28;103536;-67
2022/08/30 12:19:19;;;;;;;14.73;13.53;;;;;;;26.22;46.75;95181.09;6187468;28;103327;-66
2022/08/30 12:22:23;;;;;;;14.70;13.50;;;;;;;26.25;46.90;95175.06;6176937;28;103532;-66
2022/08/30 12:25:30;;;;;;;14.30;13.20;;;;;;;26.24;46.76;95170.81;6187562;28;103523;-66
2022/08/30 12:28:33;;;;;;;15.60;14.20;;;;;;;26.24;47.02;95165.44;6185981;28;103023;-66
2022/08/30 12:31:40;;;;;;;14.97;13.70;;;;;;;26.24;46.61;95161.97;6187088;28;103148;-66
2022/08/30 12:34:54;;;;;;;15.90;14.70;;;;;;;26.24;46.64;95162.75;6176727;28;102991;-67
2022/08/30 12:38:00;;;;;;;14.63;13.43;;;;;;;26.25;46.76;95161.63;6187376;28;103115;-65
2022/08/30 12:41:03;;;;;;;14.77;13.60;;;;;;;26.24;46.86;95157.38;6187472;28;103118;-66
2022/08/30 12:44:14;;;;;;;15.13;13.83;;;;;;;26.23;46.67;95152.34;6177468;28;104207;-66
2022/08/30 12:47:20;;;;;;;15.10;13.43;;;;;;;26.22;46.41;95148.88;6186521;28;104107;-66
2022/08/30 12:50:26;;;;;;;16.50;14.90;;;;;;;26.22;46.19;95153.47;6187732;28;102870;-66
2022/08/30 12:53:32;;;;;;;15.67;14.30;;;;;;;26.20;46.00;95159.13;6186503;28;102917;-66
2022/08/30 12:56:48;;;;;;;16.30;14.97;;;;;;;26.21;46.08;95162.59;6176458;28;103973;-65
2022/08/30 12:59:56;;;;;;;14.80;13.43;;;;;;;26.20;46.12;95159.13;6187100;28;103076;-66
2022/08/30 13:03:06;;;;;;;16.00;14.70;;;;;;;26.19;46.20;95160.25;6186565;28;102996;-67
2022/08/30 13:06:37;;;;;;;16.10;14.50;;;;;;;26.18;46.85;95164.06;6181400;28;103314;-67
2022/08/30 13:09:43;;;;;;;14.90;13.60;;;;;;;26.16;46.80;95160.13;6182804;28;103031;-66
2022/08/30 13:13:01;;;;;;;15.37;14.03;;;;;;;26.13;46.57;95158.91;6187381;28;102864;-66
2022/08/30 13:16:20;;;;;;;16.10;14.80;;;;;;;26.12;46.42;95160.00;6185144;28;103180;-66
2022/08/30 13:19:32;;;;;;;15.40;14.00;;;;;;;26.11;46.71;95152.28;6175373;28;104432;-66
2022/08/30 13:22:38;;;;;;;16.07;14.57;;;;;;;26.03;46.65;95142.41;6185291;28;103474;-68
2022/08/30 13:25:42;;;;;;;16.40;15.00;;;;;;;26.02;46.88;95141.63;6185402;28;103140;-66
2022/08/30 13:28:50;;;;;;;14.93;13.63;;;;;;;26.07;46.62;95140.66;6180731;28;103105;-67
2022/08/30 13:31:53;;;;;;;16.67;14.07;;;;;;;26.10;46.55;95140.00;6178977;28;102999;-67
2022/08/30 13:34:56;;;;;;;13.67;12.60;;;;;;;26.12;46.91;95125.13;6185816;28;103409;-67
2022/08/30 13:38:02;;;;;;;16.30;15.00;;;;;;;26.14;46.77;95116.75;6184395;28;103081;-65
2022/08/30 13:41:06;;;;;;;16.10;14.80;;;;;;;26.13;46.43;95115.97;6177493;28;102920;-67
2022/08/30 13:44:12;;;;;;;16.70;15.30;;;;;;;26.15;47.10;95108.38;6188848;28;103165;-66
2022/08/30 13:47:19;;;;;;;16.00;14.67;;;;;;;26.13;46.34;95113.28;6189523;28;104709;-66
2022/08/30 13:50:39;;;;;;;16.00;14.80;;;;;;;26.13;46.52;95109.81;6140809;28;102987;-67
2022/08/30 13:53:43;;;;;;;15.90;14.50;;;;;;;26.12;46.78;95108.25;6129995;28;102788;-67
2022/08/30 13:56:56;;;;;;;16.57;14.83;;;;;;;26.08;46.52;95104.69;6140505;28;103203;-66
2022/08/30 13:59:59;;;;;;;15.73;14.43;;;;;;;26.06;46.33;95112.28;6139638;28;104001;-62
2022/08/30 14:03:03;;;;;;;16.10;14.73;;;;;;;26.08;46.38;95096.63;6136040;28;104194;-62
2022/08/30 14:06:06;;;;;;;15.93;14.53;;;;;;;26.10;46.76;95102.44;6134060;28;103081;-63
2022/08/30 14:09:31;;;;;;;16.47;15.17;;;;;;;26.12;46.91;95098.31;6140168;28;102889;-64
2022/08/30 14:12:34;;;;;;;17.27;15.70;;;;;;;26.13;46.90;95094.53;6140095;28;103416;-63
2022/08/30 14:15:59;;;;;;;17.43;16.10;;;;;;;26.15;46.54;95094.19;6128691;28;104036;-62
2022/08/30 14:19:22;;;;;;;18.40;16.87;;;;;;;26.17;46.67;95102.69;6139799;28;103132;-62